Time;durP1;ratioP1;P1;durP2;ratioP2;P2;SDS_P1;SDS_P2;PMS_P1;PMS_P2;Temp;Humidity;BMP_temperature;BMP_pressure;BME280_temperature;BME280_humidity;BME280_pressure;Samples;Min_cycle;Max_cycle;Signal;HPM_P1;HPM_P2
2023/10/19 00:02:15;;;;;;;10.83;6.20;;;;;;;;;;5062172;28;20411;-83
2023/10/19 00:04:41;;;;;;;10.47;6.17;;;;;;;;;;5073807;28;20454;-82
2023/10/19 00:07:08;;;;;;;8.33;7.00;;;;;;;;;;5073920;28;20411;-81
2023/10/19 00:09:38;;;;;;;7.43;5.80;;;;;;;;;;5073765;28;20514;-82
2023/10/19 00:12:09;;;;;;;8.73;7.13;;;;;;;;;;5073810;28;20389;-82
2023/10/19 00:14:35;;;;;;;9.03;6.50;;;;;;;;;;5073560;28;20491;-81
2023/10/19 00:17:05;;;;;;;8.63;6.80;;;;;;;;;;5055408;28;20423;-82
2023/10/19 00:19:37;;;;;;;11.20;6.33;;;;;;;;;;5073624;28;20413;-82
2023/10/19 00:22:08;;;;;;;8.17;5.77;;;;;;;;;;5073499;28;20398;-83
2023/10/19 00:24:34;;;;;;;9.53;6.40;;;;;;;;;;5073522;28;20765;-82
2023/10/19 00:27:07;;;;;;;10.40;8.00;;;;;;;;;;5073394;28;20500;-82
2023/10/19 00:29:40;;;;;;;9.90;6.13;;;;;;;;;;5073454;28;20960;-82
2023/10/19 00:32:06;;;;;;;9.83;7.20;;;;;;;;;;5072385;28;20397;-82
2023/10/19 00:34:38;;;;;;;11.43;7.77;;;;;;;;;;5073065;28;20500;-82
2023/10/19 00:37:07;;;;;;;11.03;7.10;;;;;;;;;;5055432;28;20937;-81
2023/10/19 00:39:43;;;;;;;9.10;6.27;;;;;;;;;;5073232;28;20468;-82
2023/10/19 00:42:09;;;;;;;10.50;7.83;;;;;;;;;;5073133;28;20461;-82
2023/10/19 00:44:42;;;;;;;12.77;7.70;;;;;;;;;;5072852;28;20755;-82
2023/10/19 00:47:13;;;;;;;12.13;8.33;;;;;;;;;;5070268;28;20446;-82
2023/10/19 00:49:39;;;;;;;11.17;7.10;;;;;;;;;;5055101;28;20445;-81
2023/10/19 00:52:19;;;;;;;13.53;8.27;;;;;;;;;;5073087;28;20419;-82
2023/10/19 00:57:32;;;;;;;9.77;7.37;;;;;;;;;;5053090;28;20769;-82
2023/10/19 01:00:11;;;;;;;11.37;8.30;;;;;;;;;;5051503;28;20419;-82
2023/10/19 01:02:43;;;;;;;12.27;7.87;;;;;;;;;;5073068;28;20441;-82
2023/10/19 01:05:13;;;;;;;12.10;9.13;;;;;;;;;;5072930;28;20468;-82
2023/10/19 01:07:38;;;;;;;11.60;8.37;;;;;;;;;;5072805;28;20772;-82
2023/10/19 01:10:47;;;;;;;12.07;8.53;;;;;;;;;;5072845;28;20405;-82
2023/10/19 01:12:54;;;;;;;11.53;7.67;;;;;;;;;;5061985;28;20413;-83
2023/10/19 01:15:29;;;;;;;12.63;9.17;;;;;;;;;;5072390;28;20475;-84
2023/10/19 01:17:58;;;;;;;9.87;7.13;;;;;;;;;;5072833;28;20420;-84
2023/10/19 01:26:29;;;;;;;10.70;7.70;;;;;;;;;;5072895;28;21016;-83
2023/10/19 01:28:51;;;;;;;11.63;7.23;;;;;;;;;;5061908;28;20463;-84
2023/10/19 01:33:55;;;;;;;11.00;7.40;;;;;;;;;;5072655;28;20475;-80
2023/10/19 01:38:47;;;;;;;10.33;7.40;;;;;;;;;;5072675;28;20409;-81
2023/10/19 01:41:13;;;;;;;9.57;7.00;;;;;;;;;;5072633;28;20395;-82
2023/10/19 01:43:40;;;;;;;9.67;7.00;;;;;;;;;;5056391;28;20918;-82
2023/10/19 01:46:52;;;;;;;9.60;7.37;;;;;;;;;;5076232;28;20466;-82
2023/10/19 01:48:56;;;;;;;8.97;6.03;;;;;;;;;;5062231;28;20426;-81
2023/10/19 01:51:26;;;;;;;9.37;6.67;;;;;;;;;;5058509;28;20914;-82
2023/10/19 01:53:52;;;;;;;10.43;8.03;;;;;;;;;;5076384;28;20461;-81
2023/10/19 01:56:18;;;;;;;11.67;8.40;;;;;;;;;;5076298;28;20451;-82
2023/10/19 01:58:48;;;;;;;10.23;7.37;;;;;;;;;;5076219;28;20500;-81
2023/10/19 02:01:20;;;;;;;11.70;7.53;;;;;;;;;;5075903;28;20957;-81
2023/10/19 02:03:46;;;;;;;8.43;7.13;;;;;;;;;;5058339;28;20423;-81
2023/10/19 02:06:17;;;;;;;10.33;7.53;;;;;;;;;;5076229;28;20424;-81
2023/10/19 02:08:53;;;;;;;13.33;7.73;;;;;;;;;;5076120;28;20804;-82
2023/10/19 02:11:22;;;;;;;9.33;6.57;;;;;;;;;;5058156;28;20413;-80
2023/10/19 02:13:49;;;;;;;10.67;7.23;;;;;;;;;;5058016;28;20991;-81
2023/10/19 02:16:16;;;;;;;10.43;7.77;;;;;;;;;;5075557;28;20412;-78
2023/10/19 02:18:43;;;;;;;11.70;7.93;;;;;;;;;;5075878;28;20421;-82
2023/10/19 02:21:11;;;;;;;9.77;7.67;;;;;;;;;;5058181;28;20500;-81
2023/10/19 02:23:38;;;;;;;13.27;7.93;;;;;;;;;;5075896;28;20814;-81
2023/10/19 02:26:07;;;;;;;9.97;6.90;;;;;;;;;;5075818;28;20458;-82
2023/10/19 02:28:37;;;;;;;13.73;8.50;;;;;;;;;;5075849;28;20407;-82
2023/10/19 02:31:16;;;;;;;10.10;7.70;;;;;;;;;;5071428;28;20752;-81
2023/10/19 02:33:46;;;;;;;12.13;7.80;;;;;;;;;;5075287;28;20794;-78
2023/10/19 02:36:13;;;;;;;12.43;7.13;;;;;;;;;;5075621;28;20474;-82
2023/10/19 02:38:40;;;;;;;11.13;7.67;;;;;;;;;;5075429;28;20773;-81
2023/10/19 02:41:06;;;;;;;11.13;6.20;;;;;;;;;;5051517;28;20430;-82
2023/10/19 02:43:35;;;;;;;11.27;9.00;;;;;;;;;;5075491;28;20403;-81
2023/10/19 02:46:02;;;;;;;13.53;8.10;;;;;;;;;;5053993;28;20424;-82
2023/10/19 02:48:28;;;;;;;11.27;7.57;;;;;;;;;;5075251;28;20548;-82
2023/10/19 02:50:54;;;;;;;10.87;7.93;;;;;;;;;;5068168;28;20558;-82
2023/10/19 02:53:20;;;;;;;13.80;8.33;;;;;;;;;;5037369;28;20619;-80
2023/10/19 02:55:51;;;;;;;10.00;7.27;;;;;;;;;;5057221;28;20428;-81
2023/10/19 02:58:17;;;;;;;10.27;7.33;;;;;;;;;;5055332;28;20766;-84
2023/10/19 03:00:43;;;;;;;11.17;8.00;;;;;;;;;;5059829;28;20440;-81
2023/10/19 03:03:10;;;;;;;9.03;7.03;;;;;;;;;;5057305;28;21031;-81
2023/10/19 03:05:36;;;;;;;10.93;7.77;;;;;;;;;;5068983;28;20433;-82
2023/10/19 03:08:05;;;;;;;10.63;7.47;;;;;;;;;;5057584;28;20420;-80
2023/10/19 03:10:41;;;;;;;10.50;8.07;;;;;;;;;;5071422;28;20434;-80
2023/10/19 03:13:07;;;;;;;11.57;7.50;;;;;;;;;;5074304;28;20408;-84
2023/10/19 03:15:33;;;;;;;10.53;7.77;;;;;;;;;;5074075;28;20831;-83
2023/10/19 03:18:01;;;;;;;13.70;9.33;;;;;;;;;;5074116;28;20409;-83
2023/10/19 03:20:27;;;;;;;12.07;8.70;;;;;;;;;;5074754;28;20417;-82
2023/10/19 03:22:53;;;;;;;11.30;8.73;;;;;;;;;;5073601;28;20809;-84
2023/10/19 03:28:11;;;;;;;11.97;8.93;;;;;;;;;;5074725;28;20827;-82
2023/10/19 03:30:40;;;;;;;14.93;8.87;;;;;;;;;;5074324;28;20815;-81
2023/10/19 03:33:11;;;;;;;12.13;8.60;;;;;;;;;;5074468;28;20816;-84
2023/10/19 03:35:38;;;;;;;13.77;9.80;;;;;;;;;;5074565;28;20405;-83
2023/10/19 03:38:14;;;;;;;10.33;7.87;;;;;;;;;;5074447;28;20415;-82
2023/10/19 03:40:39;;;;;;;14.60;8.70;;;;;;;;;;5074412;28;20780;-83
2023/10/19 03:43:16;;;;;;;12.03;9.27;;;;;;;;;;5074378;28;20410;-82
2023/10/19 03:45:48;;;;;;;14.73;9.27;;;;;;;;;;5072680;28;20258;-83
2023/10/19 03:48:18;;;;;;;13.97;8.60;;;;;;;;;;5074162;28;20513;-82
2023/10/19 03:50:44;;;;;;;13.13;10.30;;;;;;;;;;5074244;28;20464;-83
2023/10/19 03:53:12;;;;;;;14.43;9.07;;;;;;;;;;5074038;28;20426;-81
2023/10/19 03:55:38;;;;;;;14.63;9.90;;;;;;;;;;5074146;28;20930;-83
2023/10/19 03:58:04;;;;;;;11.93;8.30;;;;;;;;;;5074082;28;20466;-82
2023/10/19 04:00:33;;;;;;;13.70;9.20;;;;;;;;;;5072304;28;20853;-82
2023/10/19 04:02:59;;;;;;;12.80;8.83;;;;;;;;;;5073971;28;20437;-84
2023/10/19 04:05:26;;;;;;;14.17;10.33;;;;;;;;;;5074003;28;20417;-83
2023/10/19 04:07:55;;;;;;;14.73;9.13;;;;;;;;;;5054978;28;20417;-83
2023/10/19 04:10:38;;;;;;;12.00;9.30;;;;;;;;;;5072368;28;20420;-82
2023/10/19 04:13:09;;;;;;;15.23;10.60;;;;;;;;;;5072555;28;20412;-81
2023/10/19 04:15:35;;;;;;;13.97;9.83;;;;;;;;;;5073479;28;20425;-82
2023/10/19 04:18:02;;;;;;;14.40;9.63;;;;;;;;;;5073708;28;20417;-81
2023/10/19 04:23:15;;;;;;;15.20;10.07;;;;;;;;;;5073749;28;20963;-80
2023/10/19 04:25:41;;;;;;;12.60;9.00;;;;;;;;;;5073474;28;20449;-82
2023/10/19 04:28:07;;;;;;;13.97;9.93;;;;;;;;;;5057400;28;20413;-82
2023/10/19 04:30:33;;;;;;;13.50;9.77;;;;;;;;;;5035279;28;20406;-82
2023/10/19 04:33:08;;;;;;;13.63;11.00;;;;;;;;;;5053465;28;20465;-82
2023/10/19 04:35:35;;;;;;;14.57;10.40;;;;;;;;;;5053508;28;20417;-83
2023/10/19 04:38:01;;;;;;;13.93;9.13;;;;;;;;;;5053391;28;20429;-81
2023/10/19 04:40:27;;;;;;;15.07;10.37;;;;;;;;;;5053294;28;20818;-81
2023/10/19 04:42:53;;;;;;;16.17;10.30;;;;;;;;;;5053237;28;20894;-82
2023/10/19 04:45:19;;;;;;;17.20;10.90;;;;;;;;;;5052958;28;20403;-82
2023/10/19 04:47:46;;;;;;;16.67;11.17;;;;;;;;;;5035118;28;20862;-82
2023/10/19 04:50:12;;;;;;;15.13;10.27;;;;;;;;;;5053186;28;20439;-83
2023/10/19 04:52:39;;;;;;;14.73;10.40;;;;;;;;;;5053086;28;20464;-82
2023/10/19 04:55:05;;;;;;;14.93;11.17;;;;;;;;;;5053012;28;20465;-82
2023/10/19 04:57:31;;;;;;;13.97;10.80;;;;;;;;;;5035281;28;20863;-83
2023/10/19 04:59:57;;;;;;;17.40;11.00;;;;;;;;;;5034780;28;20555;-84
2023/10/19 05:02:23;;;;;;;17.37;11.30;;;;;;;;;;5053016;28;20440;-82
2023/10/19 05:04:49;;;;;;;17.20;11.40;;;;;;;;;;5053077;28;20914;-83
2023/10/19 05:07:18;;;;;;;14.80;10.60;;;;;;;;;;5052957;28;20404;-83
2023/10/19 05:09:44;;;;;;;17.43;11.50;;;;;;;;;;5052848;28;20445;-84
2023/10/19 05:12:11;;;;;;;13.73;11.13;;;;;;;;;;5052983;28;20460;-83
2023/10/19 05:14:37;;;;;;;14.83;10.43;;;;;;;;;;5052446;28;20461;-83
2023/10/19 05:17:08;;;;;;;18.40;12.67;;;;;;;;;;5035012;28;20521;-83
2023/10/19 05:19:35;;;;;;;12.83;10.10;;;;;;;;;;5058858;28;20409;-82
2023/10/19 05:22:02;;;;;;;15.23;10.87;;;;;;;;;;5041580;28;20429;-82
2023/10/19 05:24:28;;;;;;;16.60;12.90;;;;;;;;;;5059372;28;20410;-82
2023/10/19 05:26:54;;;;;;;17.30;11.40;;;;;;;;;;5059352;28;20488;-81
2023/10/19 05:29:20;;;;;;;15.70;10.70;;;;;;;;;;5059020;28;20464;-81
2023/10/19 05:31:46;;;;;;;14.20;11.73;;;;;;;;;;5041452;28;20921;-82
2023/10/19 05:34:12;;;;;;;16.17;11.37;;;;;;;;;;5059186;28;20517;-81
2023/10/19 05:36:39;;;;;;;17.27;11.90;;;;;;;;;;5059205;28;20819;-81
2023/10/19 05:39:07;;;;;;;14.30;11.00;;;;;;;;;;5041283;28;20425;-80
2023/10/19 05:41:34;;;;;;;15.63;10.50;;;;;;;;;;5059273;28;20407;-82
2023/10/19 05:43:59;;;;;;;12.90;9.90;;;;;;;;;;5058919;28;20418;-84
2023/10/19 05:46:25;;;;;;;11.47;9.47;;;;;;;;;;5041113;28;20433;-82
2023/10/19 05:48:56;;;;;;;15.00;10.40;;;;;;;;;;5059078;28;20427;-82
2023/10/19 05:51:22;;;;;;;16.40;11.60;;;;;;;;;;5059216;28;20573;-83
2023/10/19 05:53:48;;;;;;;17.80;13.80;;;;;;;;;;5059064;28;20978;-82
2023/10/19 05:56:16;;;;;;;16.70;11.73;;;;;;;;;;5059198;28;20429;-80
2023/10/19 05:58:42;;;;;;;17.30;10.80;;;;;;;;;;5059116;28;20442;-83
2023/10/19 06:01:08;;;;;;;15.93;11.83;;;;;;;;;;5058853;28;20495;-82
2023/10/19 06:03:34;;;;;;;16.97;10.97;;;;;;;;;;5059113;28;20414;-81
2023/10/19 06:06:00;;;;;;;19.93;15.03;;;;;;;;;;5059226;28;20767;-84
2023/10/19 06:08:27;;;;;;;20.23;14.80;;;;;;;;;;5059021;28;20178;-83
2023/10/19 06:10:53;;;;;;;15.53;10.87;;;;;;;;;;5059180;28;20412;-82
2023/10/19 06:13:20;;;;;;;17.17;12.57;;;;;;;;;;5041109;28;20483;-80
2023/10/19 06:15:46;;;;;;;16.07;12.00;;;;;;;;;;5058666;28;20477;-81
2023/10/19 06:18:13;;;;;;;17.93;12.30;;;;;;;;;;5058996;28;20410;-82
2023/10/19 06:20:44;;;;;;;18.50;12.27;;;;;;;;;;5059058;28;20482;-82
2023/10/19 06:23:11;;;;;;;15.23;10.93;;;;;;;;;;5058976;28;20407;-85
2023/10/19 06:25:37;;;;;;;15.07;10.33;;;;;;;;;;5058849;28;20501;-81
2023/10/19 06:28:03;;;;;;;17.07;12.70;;;;;;;;;;5058844;28;20451;-81
2023/10/19 06:30:29;;;;;;;14.60;11.00;;;;;;;;;;5055407;28;20418;-82
2023/10/19 06:32:59;;;;;;;13.73;10.23;;;;;;;;;;5055697;28;20899;-84
2023/10/19 06:35:25;;;;;;;14.97;10.40;;;;;;;;;;5037881;28;20469;-82
2023/10/19 06:37:51;;;;;;;14.30;9.90;;;;;;;;;;5055405;28;20406;-84
2023/10/19 06:40:17;;;;;;;13.93;8.83;;;;;;;;;;5037889;28;20415;-89
2023/10/19 06:42:45;;;;;;;18.60;11.37;;;;;;;;;;5055757;28;20412;-83
2023/10/19 06:45:13;;;;;;;13.90;9.43;;;;;;;;;;5055403;28;20419;-90
2023/10/19 06:47:40;;;;;;;14.20;9.53;;;;;;;;;;5056122;28;20498;-82
2023/10/19 06:50:09;;;;;;;14.63;9.93;;;;;;;;;;5055525;28;20972;-82
2023/10/19 06:52:38;;;;;;;17.17;10.83;;;;;;;;;;5037832;28;20417;-84
2023/10/19 06:55:05;;;;;;;16.57;11.73;;;;;;;;;;5055616;28;20923;-84
2023/10/19 06:57:32;;;;;;;15.97;10.63;;;;;;;;;;5037490;28;20476;-87
2023/10/19 06:59:59;;;;;;;14.80;9.57;;;;;;;;;;5055241;28;20504;-88
2023/10/19 07:02:26;;;;;;;16.20;11.83;;;;;;;;;;5055323;28;20402;-84
2023/10/19 07:04:52;;;;;;;14.03;9.40;;;;;;;;;;5037258;28;20426;-85
2023/10/19 07:07:18;;;;;;;10.57;8.47;;;;;;;;;;5037225;28;20449;-87
2023/10/19 07:09:44;;;;;;;13.33;9.63;;;;;;;;;;5055182;28;20234;-83
2023/10/19 07:12:10;;;;;;;14.17;10.13;;;;;;;;;;5055154;28;20406;-83
2023/10/19 07:15:00;;;;;;;17.90;11.73;;;;;;;;;;5057570;28;20496;-83
2023/10/19 07:17:27;;;;;;;14.50;9.53;;;;;;;;;;5075069;28;20902;-84
2023/10/19 07:19:53;;;;;;;16.25;10.65;;;;;;;;;;5074484;28;20493;-87
2023/10/19 07:22:22;;;;;;;15.13;10.30;;;;;;;;;;5074937;28;20260;-82
2023/10/19 07:24:48;;;;;;;17.23;12.20;;;;;;;;;;5074735;28;20626;-84
2023/10/19 07:27:18;;;;;;;14.80;10.97;;;;;;;;;;5056782;28;20992;-84
2023/10/19 07:29:44;;;;;;;14.40;10.60;;;;;;;;;;5074276;28;20441;-82
2023/10/19 07:32:13;;;;;;;16.93;10.80;;;;;;;;;;5074534;28;20500;-83
2023/10/19 07:34:39;;;;;;;16.50;11.38;;;;;;;;;;5074187;28;20447;-83
2023/10/19 07:37:07;;;;;;;14.40;11.23;;;;;;;;;;5074576;28;20172;-85
2023/10/19 07:39:34;;;;;;;17.87;10.70;;;;;;;;;;5074494;28;20509;-86
2023/10/19 07:42:00;;;;;;;14.87;9.60;;;;;;;;;;5074287;28;20401;-84
2023/10/19 07:44:26;;;;;;;15.97;10.80;;;;;;;;;;5074073;28;20444;-83
2023/10/19 07:46:55;;;;;;;13.47;10.00;;;;;;;;;;5074012;28;20449;-83
2023/10/19 07:49:21;;;;;;;16.63;11.83;;;;;;;;;;5074208;28;20413;-83
2023/10/19 07:51:49;;;;;;;15.37;10.93;;;;;;;;;;5074092;28;20437;-83
2023/10/19 07:54:15;;;;;;;14.30;11.20;;;;;;;;;;5074092;28;20474;-83
2023/10/19 07:56:46;;;;;;;14.13;10.30;;;;;;;;;;5073949;28;20402;-83
2023/10/19 07:59:12;;;;;;;16.07;11.87;;;;;;;;;;5055863;28;20433;-82
2023/10/19 08:01:38;;;;;;;18.73;12.17;;;;;;;;;;5074019;28;20406;-81
2023/10/19 08:04:05;;;;;;;15.30;10.50;;;;;;;;;;5056078;28;20490;-85
2023/10/19 08:06:31;;;;;;;19.30;13.20;;;;;;;;;;5074083;28;20417;-84
2023/10/19 08:08:58;;;;;;;16.83;13.10;;;;;;;;;;5073869;28;20891;-85
2023/10/19 08:11:24;;;;;;;15.93;10.90;;;;;;;;;;5074010;28;20424;-83
2023/10/19 08:13:50;;;;;;;17.60;11.63;;;;;;;;;;5073254;28;20812;-83
2023/10/19 08:16:20;;;;;;;16.40;10.30;;;;;;;;;;5073713;28;20427;-84
2023/10/19 08:18:46;;;;;;;14.57;10.90;;;;;;;;;;5073871;28;20405;-83
2023/10/19 08:21:12;;;;;;;14.37;10.27;;;;;;;;;;5073653;28;20513;-83
2023/10/19 08:23:38;;;;;;;18.47;13.10;;;;;;;;;;5073625;28;20433;-85
2023/10/19 08:26:05;;;;;;;13.30;11.20;;;;;;;;;;5073545;28;20899;-84
2023/10/19 08:28:32;;;;;;;19.07;14.77;;;;;;;;;;5073104;28;20934;-87
2023/10/19 08:31:00;;;;;;;17.13;12.23;;;;;;;;;;5073654;28;20918;-83
2023/10/19 08:33:26;;;;;;;19.70;12.70;;;;;;;;;;5073440;28;20766;-84
2023/10/19 08:35:53;;;;;;;16.10;13.00;;;;;;;;;;5073276;28;20420;-83
2023/10/19 08:38:19;;;;;;;17.37;11.87;;;;;;;;;;5073310;28;20413;-84
2023/10/19 08:40:45;;;;;;;17.60;13.03;;;;;;;;;;5073285;28;20417;-84
2023/10/19 08:43:17;;;;;;;16.70;12.20;;;;;;;;;;5073274;28;21125;-83
2023/10/19 08:45:44;;;;;;;21.70;13.80;;;;;;;;;;5054975;28;20845;-85
2023/10/19 08:48:11;;;;;;;24.13;15.23;;;;;;;;;;5073058;28;20561;-81
2023/10/19 08:50:37;;;;;;;20.63;12.20;;;;;;;;;;5073155;28;20421;-79
2023/10/19 08:53:03;;;;;;;19.10;11.57;;;;;;;;;;5054671;28;20420;-83
2023/10/19 08:55:35;;;;;;;18.90;11.60;;;;;;;;;;5073105;28;20474;-83
2023/10/19 08:58:04;;;;;;;17.20;12.47;;;;;;;;;;5055100;28;20460;-85
2023/10/19 09:00:42;;;;;;;17.87;12.97;;;;;;;;;;5072569;28;20500;-83
2023/10/19 09:03:09;;;;;;;18.57;12.40;;;;;;;;;;5054955;28;20424;-86
2023/10/19 09:05:40;;;;;;;15.70;10.57;;;;;;;;;;5054900;28;20426;-84
2023/10/19 09:08:06;;;;;;;15.30;11.77;;;;;;;;;;5072988;28;20494;-84
2023/10/19 09:10:32;;;;;;;16.77;13.80;;;;;;;;;;5073018;28;20419;-85
2023/10/19 09:13:07;;;;;;;19.20;12.87;;;;;;;;;;5054978;28;20508;-83
2023/10/19 09:15:34;;;;;;;18.30;13.10;;;;;;;;;;5040189;28;20479;-85
2023/10/19 09:18:18;;;;;;;18.10;12.83;;;;;;;;;;5052781;28;20411;-83
2023/10/19 09:20:55;;;;;;;16.87;12.50;;;;;;;;;;5063476;28;20449;-84
2023/10/19 09:23:36;;;;;;;19.23;13.53;;;;;;;;;;5054984;28;20777;-84
2023/10/19 09:26:03;;;;;;;18.00;12.33;;;;;;;;;;5072857;28;20409;-82
2023/10/19 09:28:29;;;;;;;18.73;12.80;;;;;;;;;;5052825;28;20424;-83
2023/10/19 09:30:55;;;;;;;16.90;11.33;;;;;;;;;;5054399;28;20770;-87
2023/10/19 09:33:22;;;;;;;17.60;12.20;;;;;;;;;;5072806;28;20418;-86
2023/10/19 09:35:48;;;;;;;20.70;14.27;;;;;;;;;;5072713;28;20422;-85
2023/10/19 09:38:27;;;;;;;20.40;13.70;;;;;;;;;;5072687;28;20479;-85
2023/10/19 09:40:54;;;;;;;18.37;13.30;;;;;;;;;;5072740;28;20446;-83
2023/10/19 09:43:30;;;;;;;20.33;15.80;;;;;;;;;;5072322;28;20404;-79
2023/10/19 09:46:00;;;;;;;17.17;12.80;;;;;;;;;;5072641;28;20414;-77
2023/10/19 09:48:26;;;;;;;24.10;18.90;;;;;;;;;;5072149;28;20464;-78
2023/10/19 09:50:58;;;;;;;22.17;16.17;;;;;;;;;;5072601;28;20414;-77
2023/10/19 09:53:26;;;;;;;15.90;11.67;;;;;;;;;;5072578;28;20478;-77
2023/10/19 09:55:54;;;;;;;19.13;15.20;;;;;;;;;;5072549;28;20518;-78
2023/10/19 09:58:21;;;;;;;17.73;13.73;;;;;;;;;;5072213;28;20502;-77
2023/10/19 10:00:51;;;;;;;15.43;12.70;;;;;;;;;;5072604;28;20503;-77
2023/10/19 10:03:42;;;;;;;23.30;16.97;;;;;;;;;;5072623;28;20453;-80
2023/10/19 10:06:08;;;;;;;21.33;14.37;;;;;;;;;;5074986;28;20422;-76
2023/10/19 10:08:37;;;;;;;23.70;16.77;;;;;;;;;;5076186;28;20729;-81
2023/10/19 10:11:22;;;;;;;19.63;16.47;;;;;;;;;;5076121;28;20417;-76
2023/10/19 10:13:52;;;;;;;19.80;14.70;;;;;;;;;;5075662;28;20470;-79
2023/10/19 10:16:19;;;;;;;14.33;12.83;;;;;;;;;;5074942;28;20498;-82
2023/10/19 10:18:48;;;;;;;19.97;12.47;;;;;;;;;;5075982;28;20417;-76
2023/10/19 10:21:16;;;;;;;15.80;11.60;;;;;;;;;;5076038;28;20454;-76
2023/10/19 10:23:47;;;;;;;20.30;14.60;;;;;;;;;;5075942;28;20754;-77
2023/10/19 10:26:14;;;;;;;17.90;13.23;;;;;;;;;;5075859;28;20464;-77
2023/10/19 10:28:40;;;;;;;17.50;14.37;;;;;;;;;;5075410;28;20409;-78
2023/10/19 10:31:07;;;;;;;18.50;14.17;;;;;;;;;;5061247;28;20513;-77
2023/10/19 10:33:54;;;;;;;21.07;14.70;;;;;;;;;;5055661;28;20434;-76
2023/10/19 10:36:21;;;;;;;16.50;13.77;;;;;;;;;;5059168;28;20453;-78
2023/10/19 10:38:47;;;;;;;20.67;12.87;;;;;;;;;;5075424;28;20399;-79
2023/10/19 10:41:20;;;;;;;19.70;13.80;;;;;;;;;;5075601;28;20425;-77
2023/10/19 10:43:53;;;;;;;15.27;13.00;;;;;;;;;;5075254;28;20767;-77
2023/10/19 10:46:21;;;;;;;14.10;12.40;;;;;;;;;;5057574;28;20460;-77
2023/10/19 10:48:48;;;;;;;12.00;10.47;;;;;;;;;;5075287;28;20458;-76
2023/10/19 10:51:24;;;;;;;19.67;13.63;;;;;;;;;;5075629;28;20421;-78
2023/10/19 10:53:51;;;;;;;19.57;14.27;;;;;;;;;;5075427;28;20819;-85
2023/10/19 10:56:17;;;;;;;21.57;15.60;;;;;;;;;;5076587;28;20421;-86
2023/10/19 10:58:43;;;;;;;14.63;12.00;;;;;;;;;;5077252;28;20754;-84
2023/10/19 11:01:10;;;;;;;19.10;14.37;;;;;;;;;;5075427;28;20417;-84
2023/10/19 11:03:36;;;;;;;19.50;13.30;;;;;;;;;;5075154;28;20402;-81
2023/10/19 11:06:07;;;;;;;16.40;13.00;;;;;;;;;;5075101;28;20428;-79
2023/10/19 11:08:33;;;;;;;15.97;13.90;;;;;;;;;;5071877;28;20479;-80
2023/10/19 11:11:04;;;;;;;16.67;13.73;;;;;;;;;;5075032;28;20415;-76
2023/10/19 11:13:33;;;;;;;17.90;14.80;;;;;;;;;;5074683;28;20784;-78
2023/10/19 11:16:00;;;;;;;17.67;13.43;;;;;;;;;;5074488;28;20409;-76
2023/10/19 11:18:30;;;;;;;19.03;14.37;;;;;;;;;;5075071;28;20413;-77
2023/10/19 11:20:59;;;;;;;20.40;13.37;;;;;;;;;;5074881;28;20400;-81
2023/10/19 11:23:36;;;;;;;14.37;11.90;;;;;;;;;;5074938;28;20407;-84
2023/10/19 11:26:02;;;;;;;17.40;14.43;;;;;;;;;;5074889;28;20834;-84
2023/10/19 11:28:29;;;;;;;16.87;13.27;;;;;;;;;;5074542;28;20407;-82
2023/10/19 11:30:55;;;;;;;16.40;13.77;;;;;;;;;;5074754;28;20398;-77
2023/10/19 11:33:24;;;;;;;16.60;13.50;;;;;;;;;;5074551;28;20783;-81
2023/10/19 11:35:50;;;;;;;17.30;14.40;;;;;;;;;;5074622;28;20774;-80
2023/10/19 11:38:17;;;;;;;16.73;12.90;;;;;;;;;;5074528;28;20422;-77
2023/10/19 11:40:43;;;;;;;20.23;13.83;;;;;;;;;;5074617;28;20770;-76
2023/10/19 11:43:09;;;;;;;16.73;13.80;;;;;;;;;;5074159;28;20426;-85
2023/10/19 11:45:35;;;;;;;19.33;14.63;;;;;;;;;;5074483;28;20178;-81
2023/10/19 11:48:01;;;;;;;17.20;13.90;;;;;;;;;;5061813;28;20282;-78
2023/10/19 11:50:28;;;;;;;15.70;13.73;;;;;;;;;;5054383;28;20200;-77
2023/10/19 11:52:56;;;;;;;17.23;12.77;;;;;;;;;;5054315;28;20435;-77
2023/10/19 11:55:21;;;;;;;16.70;12.43;;;;;;;;;;5054211;28;20980;-77
2023/10/19 11:57:47;;;;;;;17.90;15.23;;;;;;;;;;5054199;28;20497;-77
2023/10/19 12:00:15;;;;;;;15.80;12.77;;;;;;;;;;5053915;28;20452;-78
2023/10/19 12:02:41;;;;;;;18.20;13.97;;;;;;;;;;5054064;28;20902;-76
2023/10/19 12:05:10;;;;;;;15.90;13.17;;;;;;;;;;5036073;28;20427;-76
2023/10/19 12:07:38;;;;;;;16.07;13.27;;;;;;;;;;5054014;28;20407;-81
2023/10/19 12:10:08;;;;;;;16.67;13.87;;;;;;;;;;5054021;28;20780;-81
2023/10/19 12:12:35;;;;;;;16.97;12.17;;;;;;;;;;5053966;28;20439;-82
2023/10/19 12:15:02;;;;;;;16.37;13.83;;;;;;;;;;5053505;28;20473;-77
2023/10/19 12:17:29;;;;;;;16.73;13.20;;;;;;;;;;5053811;28;20415;-77
2023/10/19 12:19:55;;;;;;;15.20;13.40;;;;;;;;;;5053762;28;20454;-77
2023/10/19 12:22:21;;;;;;;21.47;14.67;;;;;;;;;;5053746;28;20411;-77
2023/10/19 12:24:48;;;;;;;16.13;13.50;;;;;;;;;;5037638;28;20512;-78
2023/10/19 12:27:14;;;;;;;17.90;12.90;;;;;;;;;;5073166;28;20505;-77
2023/10/19 12:29:40;;;;;;;16.50;13.70;;;;;;;;;;5072872;28;20421;-77
2023/10/19 12:32:06;;;;;;;18.97;14.53;;;;;;;;;;5073526;28;20756;-77
2023/10/19 12:34:33;;;;;;;16.37;14.17;;;;;;;;;;5055517;28;20497;-81
2023/10/19 12:36:59;;;;;;;25.00;15.00;;;;;;;;;;5073422;28;20407;-82
2023/10/19 12:39:45;;;;;;;17.70;13.40;;;;;;;;;;5055563;28;20788;-82
2023/10/19 12:42:11;;;;;;;16.87;14.77;;;;;;;;;;5073608;28;20507;-85
2023/10/19 12:44:39;;;;;;;18.27;14.90;;;;;;;;;;5073117;28;20411;-81
2023/10/19 12:47:16;;;;;;;22.93;15.10;;;;;;;;;;5073413;28;20535;-83
2023/10/19 12:49:42;;;;;;;18.20;13.40;;;;;;;;;;5073781;28;20411;-76
2023/10/19 12:52:08;;;;;;;17.23;13.20;;;;;;;;;;5073311;28;20399;-80
2023/10/19 12:54:35;;;;;;;16.33;13.93;;;;;;;;;;5066889;28;20559;-80
2023/10/19 12:57:03;;;;;;;18.30;13.77;;;;;;;;;;5073250;28;20416;-76
2023/10/19 12:59:29;;;;;;;16.13;13.13;;;;;;;;;;5054990;28;20426;-81
2023/10/19 13:01:58;;;;;;;16.47;13.37;;;;;;;;;;5073486;28;20462;-89
2023/10/19 13:04:24;;;;;;;18.57;13.50;;;;;;;;;;5073400;28;20173;-89
2023/10/19 13:06:51;;;;;;;17.77;14.63;;;;;;;;;;5073246;28;20414;-89
2023/10/19 13:09:21;;;;;;;18.03;14.03;;;;;;;;;;5073182;28;20418;-89
2023/10/19 13:11:51;;;;;;;14.90;12.40;;;;;;;;;;5073474;28;20475;-87
2023/10/19 13:14:17;;;;;;;21.37;17.47;;;;;;;;;;5072876;28;20513;-86
2023/10/19 13:16:43;;;;;;;22.67;14.10;;;;;;;;;;5072998;28;20448;-76
2023/10/19 13:19:13;;;;;;;19.23;15.90;;;;;;;;;;5072985;28;20445;-79
2023/10/19 13:21:39;;;;;;;19.03;14.17;;;;;;;;;;5073124;28;20414;-76
2023/10/19 13:24:06;;;;;;;23.20;17.13;;;;;;;;;;5072976;28;20511;-88
2023/10/19 13:26:32;;;;;;;26.63;21.37;;;;;;;;;;5055248;28;20413;-78
2023/10/19 13:28:58;;;;;;;21.30;16.70;;;;;;;;;;5072966;28;20778;-81
2023/10/19 13:31:26;;;;;;;21.00;15.30;;;;;;;;;;5073348;28;20417;-89
2023/10/19 13:33:52;;;;;;;25.10;17.93;;;;;;;;;;5073319;28;20613;-88
2023/10/19 13:36:19;;;;;;;16.23;13.27;;;;;;;;;;5073169;28;20407;-88
2023/10/19 13:38:45;;;;;;;19.57;13.23;;;;;;;;;;5073458;28;20417;-79
2023/10/19 13:41:11;;;;;;;23.17;17.23;;;;;;;;;;5059350;28;20422;-83
2023/10/19 13:43:38;;;;;;;20.67;17.40;;;;;;;;;;5076563;28;20480;-90
2023/10/19 13:46:04;;;;;;;18.00;14.50;;;;;;;;;;5077027;28;20414;-84
2023/10/19 13:48:31;;;;;;;19.60;14.47;;;;;;;;;;5076752;28;20449;-79
2023/10/19 13:51:00;;;;;;;18.90;15.20;;;;;;;;;;5076908;28;20446;-87
2023/10/19 13:53:26;;;;;;;19.53;15.30;;;;;;;;;;5077345;28;20899;-88
2023/10/19 13:55:52;;;;;;;18.70;13.40;;;;;;;;;;5076627;28;20429;-76
2023/10/19 13:58:18;;;;;;;19.50;13.97;;;;;;;;;;5076350;28;20412;-91
2023/10/19 14:00:44;;;;;;;22.00;15.97;;;;;;;;;;5058667;28;20845;-83
2023/10/19 14:03:12;;;;;;;17.33;13.87;;;;;;;;;;5076665;28;20470;-83
2023/10/19 14:05:47;;;;;;;19.93;13.70;;;;;;;;;;5076700;28;20417;-84
2023/10/19 14:08:13;;;;;;;20.23;13.20;;;;;;;;;;5076915;28;20913;-89
2023/10/19 14:10:41;;;;;;;20.10;12.60;;;;;;;;;;5076548;28;20412;-89
2023/10/19 14:13:07;;;;;;;15.47;12.00;;;;;;;;;;5076114;28;20402;-90
2023/10/19 14:15:34;;;;;;;21.27;12.90;;;;;;;;;;5076455;28;20531;-88
2023/10/19 14:18:00;;;;;;;16.47;13.13;;;;;;;;;;5076935;28;20406;-82
2023/10/19 14:20:26;;;;;;;16.10;12.30;;;;;;;;;;5076681;28;20851;-82
2023/10/19 14:22:55;;;;;;;20.60;14.00;;;;;;;;;;5076377;28;20440;-85
2023/10/19 14:25:22;;;;;;;16.07;13.57;;;;;;;;;;5076530;28;20423;-91
2023/10/19 14:27:49;;;;;;;15.87;12.87;;;;;;;;;;5076329;28;20416;-89
2023/10/19 14:30:16;;;;;;;16.10;12.37;;;;;;;;;;5076386;28;20417;-90
2023/10/19 14:32:44;;;;;;;19.43;13.43;;;;;;;;;;5076494;28;20523;-85
2023/10/19 14:35:11;;;;;;;20.10;14.00;;;;;;;;;;5076287;28;20495;-88
2023/10/19 14:37:40;;;;;;;17.30;12.50;;;;;;;;;;5058321;28;20421;-90
2023/10/19 14:40:09;;;;;;;18.23;13.07;;;;;;;;;;5076226;28;20414;-89
2023/10/19 14:42:36;;;;;;;19.90;14.30;;;;;;;;;;5075861;28;20555;-89
2023/10/19 14:45:02;;;;;;;15.40;12.60;;;;;;;;;;5075832;28;20783;-88
2023/10/19 14:47:28;;;;;;;20.83;13.73;;;;;;;;;;5075719;28;20473;-85